sensor_id;sensor_type;location;lat;lon;timestamp;temperature;humidity
2300;DHT22;1158;48.750;9.078;2023-05-29T00:00:22;8.80;99.90
2300;DHT22;1158;48.750;9.078;2023-05-29T00:02:49;8.80;99.90
2300;DHT22;1158;48.750;9.078;2023-05-29T00:05:17;8.70;99.90
2300;DHT22;1158;48.750;9.078;2023-05-29T00:07:45;8.70;99.90
2300;DHT22;1158;48.750;9.078;2023-05-29T00:10:12;8.60;99.90
2300;DHT22;1158;48.750;9.078;2023-05-29T00:12:39;8.60;99.90
2300;DHT22;1158;48.750;9.078;2023-05-29T00:15:07;8.50;99.90
2300;DHT22;1158;48.750;9.078;2023-05-29T00:17:33;8.50;99.90
2300;DHT22;1158;48.750;9.078;2023-05-29T00:20:00;8.50;99.90
2300;DHT22;1158;48.750;9.078;2023-05-29T00:22:29;8.50;99.90
2300;DHT22;1158;48.750;9.078;2023-05-29T00:24:57;8.50;99.90
2300;DHT22;1158;48.750;9.078;2023-05-29T00:27:23;8.50;99.90
2300;DHT22;1158;48.750;9.078;2023-05-29T00:29:50;8.40;99.90
2300;DHT22;1158;48.750;9.078;2023-05-29T00:32:16;8.30;99.90
2300;DHT22;1158;48.750;9.078;2023-05-29T00:34:43;8.30;99.90
2300;DHT22;1158;48.750;9.078;2023-05-29T00:37:10;8.30;99.90
2300;DHT22;1158;48.750;9.078;2023-05-29T00:39:36;8.20;99.90
2300;DHT22;1158;48.750;9.078;2023-05-29T00:42:05;8.30;99.90
2300;DHT22;1158;48.750;9.078;2023-05-29T00:44:32;8.20;99.90
2300;DHT22;1158;48.750;9.078;2023-05-29T00:46:58;8.10;99.90
2300;DHT22;1158;48.750;9.078;2023-05-29T00:49:25;8.10;99.90
2300;DHT22;1158;48.750;9.078;2023-05-29T00:51:53;8.00;99.90
2300;DHT22;1158;48.750;9.078;2023-05-29T00:54:23;8.00;99.90
2300;DHT22;1158;48.750;9.078;2023-05-29T00:56:52;7.90;99.90
2300;DHT22;1158;48.750;9.078;2023-05-29T00:59:21;7.90;99.90
2300;DHT22;1158;48.750;9.078;2023-05-29T01:01:49;7.90;99.90
2300;DHT22;1158;48.750;9.078;2023-05-29T01:04:16;7.90;99.90
2300;DHT22;1158;48.750;9.078;2023-05-29T01:06:43;7.90;99.90
2300;DHT22;1158;48.750;9.078;2023-05-29T01:09:11;7.90;99.90
2300;DHT22;1158;48.750;9.078;2023-05-29T01:11:47;7.90;99.90
2300;DHT22;1158;48.750;9.078;2023-05-29T01:14:25;7.80;99.90
2300;DHT22;1158;48.750;9.078;2023-05-29T01:17:01;7.90;99.90
2300;DHT22;1158;48.750;9.078;2023-05-29T01:19:45;7.90;99.90
2300;DHT22;1158;48.750;9.078;2023-05-29T01:22:25;7.80;99.90
2300;DHT22;1158;48.750;9.078;2023-05-29T01:25:06;7.80;99.90
2300;DHT22;1158;48.750;9.078;2023-05-29T01:27:39;7.80;99.90
2300;DHT22;1158;48.750;9.078;2023-05-29T01:30:10;7.70;99.90
2300;DHT22;1158;48.750;9.078;2023-05-29T01:32:38;7.70;99.90
2300;DHT22;1158;48.750;9.078;2023-05-29T01:35:07;7.60;99.90
2300;DHT22;1158;48.750;9.078;2023-05-29T01:37:34;7.50;99.90
2300;DHT22;1158;48.750;9.078;2023-05-29T01:40:13;7.40;99.90
2300;DHT22;1158;48.750;9.078;2023-05-29T01:42:42;7.50;99.90
2300;DHT22;1158;48.750;9.078;2023-05-29T01:45:09;7.40;99.90
2300;DHT22;1158;48.750;9.078;2023-05-29T01:47:37;7.40;99.90
2300;DHT22;1158;48.750;9.078;2023-05-29T01:50:04;7.40;99.90
2300;DHT22;1158;48.750;9.078;2023-05-29T01:52:32;7.40;99.90
2300;DHT22;1158;48.750;9.078;2023-05-29T01:54:58;7.30;99.90
2300;DHT22;1158;48.750;9.078;2023-05-29T01:57:25;7.20;99.90
2300;DHT22;1158;48.750;9.078;2023-05-29T01:59:54;7.20;99.90
2300;DHT22;1158;48.750;9.078;2023-05-29T02:02:22;7.20;99.90
2300;DHT22;1158;48.750;9.078;2023-05-29T02:04:49;7.20;99.90
2300;DHT22;1158;48.750;9.078;2023-05-29T02:07:17;7.10;99.90
2300;DHT22;1158;48.750;9.078;2023-05-29T02:09:44;7.10;99.90
2300;DHT22;1158;48.750;9.078;2023-05-29T02:12:11;7.10;99.90
2300;DHT22;1158;48.750;9.078;2023-05-29T02:14:38;7.00;99.90
2300;DHT22;1158;48.750;9.078;2023-05-29T02:17:07;7.00;99.90
2300;DHT22;1158;48.750;9.078;2023-05-29T02:19:34;7.00;99.90
2300;DHT22;1158;48.750;9.078;2023-05-29T02:22:02;6.90;99.90
2300;DHT22;1158;48.750;9.078;2023-05-29T02:24:28;7.00;99.90
2300;DHT22;1158;48.750;9.078;2023-05-29T02:26:55;6.90;99.90
2300;DHT22;1158;48.750;9.078;2023-05-29T02:29:22;6.90;99.90
2300;DHT22;1158;48.750;9.078;2023-05-29T02:31:49;6.80;99.90
2300;DHT22;1158;48.750;9.078;2023-05-29T02:34:17;6.80;99.90
2300;DHT22;1158;48.750;9.078;2023-05-29T02:36:43;6.70;99.90
2300;DHT22;1158;48.750;9.078;2023-05-29T02:39:10;6.70;99.90
2300;DHT22;1158;48.750;9.078;2023-05-29T02:41:38;6.70;99.90
2300;DHT22;1158;48.750;9.078;2023-05-29T02:44:04;6.70;99.90
2300;DHT22;1158;48.750;9.078;2023-05-29T02:46:31;6.70;99.90
2300;DHT22;1158;48.750;9.078;2023-05-29T02:48:58;6.80;99.90
2300;DHT22;1158;48.750;9.078;2023-05-29T02:51:26;6.80;99.90
2300;DHT22;1158;48.750;9.078;2023-05-29T02:53:52;6.70;99.90
2300;DHT22;1158;48.750;9.078;2023-05-29T02:56:20;6.70;99.90
2300;DHT22;1158;48.750;9.078;2023-05-29T02:58:49;6.60;99.90
2300;DHT22;1158;48.750;9.078;2023-05-29T03:01:15;6.50;99.90
2300;DHT22;1158;48.750;9.078;2023-05-29T03:03:42;6.50;99.90
2300;DHT22;1158;48.750;9.078;2023-05-29T03:06:09;6.40;99.90
2300;DHT22;1158;48.750;9.078;2023-05-29T03:08:39;6.40;99.90
2300;DHT22;1158;48.750;9.078;2023-05-29T03:11:06;6.40;99.90
2300;DHT22;1158;48.750;9.078;2023-05-29T03:13:34;6.40;99.90
2300;DHT22;1158;48.750;9.078;2023-05-29T03:16:01;6.30;99.90
2300;DHT22;1158;48.750;9.078;2023-05-29T03:18:28;6.30;99.90
2300;DHT22;1158;48.750;9.078;2023-05-29T03:20:55;6.30;99.90
2300;DHT22;1158;48.750;9.078;2023-05-29T03:23:22;6.30;99.90
2300;DHT22;1158;48.750;9.078;2023-05-29T03:25:50;6.30;99.90
2300;DHT22;1158;48.750;9.078;2023-05-29T03:28:17;6.30;99.90
2300;DHT22;1158;48.750;9.078;2023-05-29T03:30:43;6.30;99.90
2300;DHT22;1158;48.750;9.078;2023-05-29T03:33:10;6.30;99.90
2300;DHT22;1158;48.750;9.078;2023-05-29T03:35:37;6.20;99.90
2300;DHT22;1158;48.750;9.078;2023-05-29T03:38:03;6.20;99.90
2300;DHT22;1158;48.750;9.078;2023-05-29T03:40:30;6.20;99.90
2300;DHT22;1158;48.750;9.078;2023-05-29T03:42:58;6.20;99.90
2300;DHT22;1158;48.750;9.078;2023-05-29T03:45:25;6.20;99.90
2300;DHT22;1158;48.750;9.078;2023-05-29T03:47:51;6.20;99.90
2300;DHT22;1158;48.750;9.078;2023-05-29T03:50:18;6.20;99.90
2300;DHT22;1158;48.750;9.078;2023-05-29T03:52:45;6.20;99.90
2300;DHT22;1158;48.750;9.078;2023-05-29T03:55:12;6.30;99.90
2300;DHT22;1158;48.750;9.078;2023-05-29T03:57:40;6.30;99.90
2300;DHT22;1158;48.750;9.078;2023-05-29T04:00:10;6.30;99.90
2300;DHT22;1158;48.750;9.078;2023-05-29T04:02:37;6.30;99.90
2300;DHT22;1158;48.750;9.078;2023-05-29T04:05:05;6.40;99.90
2300;DHT22;1158;48.750;9.078;2023-05-29T04:07:32;6.40;99.90
2300;DHT22;1158;48.750;9.078;2023-05-29T04:09:59;6.40;99.90
2300;DHT22;1158;48.750;9.078;2023-05-29T04:12:26;6.40;99.90
2300;DHT22;1158;48.750;9.078;2023-05-29T04:14:52;6.50;99.90
2300;DHT22;1158;48.750;9.078;2023-05-29T04:17:20;6.60;99.90
2300;DHT22;1158;48.750;9.078;2023-05-29T04:19:47;6.60;99.90
2300;DHT22;1158;48.750;9.078;2023-05-29T04:22:14;6.70;99.90
2300;DHT22;1158;48.750;9.078;2023-05-29T04:24:41;6.80;99.90
2300;DHT22;1158;48.750;9.078;2023-05-29T04:27:08;6.90;99.90
2300;DHT22;1158;48.750;9.078;2023-05-29T04:29:38;6.90;99.90
2300;DHT22;1158;48.750;9.078;2023-05-29T04:32:06;7.00;99.90
2300;DHT22;1158;48.750;9.078;2023-05-29T04:34:35;7.10;99.90
2300;DHT22;1158;48.750;9.078;2023-05-29T04:37:02;7.20;99.90
2300;DHT22;1158;48.750;9.078;2023-05-29T04:39:29;7.30;99.90
2300;DHT22;1158;48.750;9.078;2023-05-29T04:41:56;7.40;99.90
2300;DHT22;1158;48.750;9.078;2023-05-29T04:44:24;7.50;99.90
2300;DHT22;1158;48.750;9.078;2023-05-29T04:46:51;7.60;99.90
2300;DHT22;1158;48.750;9.078;2023-05-29T04:49:18;7.70;99.90
2300;DHT22;1158;48.750;9.078;2023-05-29T04:51:47;7.80;99.90
2300;DHT22;1158;48.750;9.078;2023-05-29T04:54:13;7.90;99.90
2300;DHT22;1158;48.750;9.078;2023-05-29T04:56:41;8.10;99.90
2300;DHT22;1158;48.750;9.078;2023-05-29T04:59:08;8.20;99.90
2300;DHT22;1158;48.750;9.078;2023-05-29T05:01:35;8.40;99.90
2300;DHT22;1158;48.750;9.078;2023-05-29T05:04:02;8.50;99.90
2300;DHT22;1158;48.750;9.078;2023-05-29T05:06:28;8.60;99.90
2300;DHT22;1158;48.750;9.078;2023-05-29T05:08:56;8.80;99.90
2300;DHT22;1158;48.750;9.078;2023-05-29T05:11:23;9.00;99.90
2300;DHT22;1158;48.750;9.078;2023-05-29T05:13:50;9.30;99.90
2300;DHT22;1158;48.750;9.078;2023-05-29T05:16:17;9.50;99.90
2300;DHT22;1158;48.750;9.078;2023-05-29T05:18:44;9.70;99.90
2300;DHT22;1158;48.750;9.078;2023-05-29T05:21:11;9.90;99.90
2300;DHT22;1158;48.750;9.078;2023-05-29T05:23:38;10.10;99.90
2300;DHT22;1158;48.750;9.078;2023-05-29T05:26:06;10.30;99.90
2300;DHT22;1158;48.750;9.078;2023-05-29T05:28:33;10.50;99.90
2300;DHT22;1158;48.750;9.078;2023-05-29T05:31:00;10.60;99.90
2300;DHT22;1158;48.750;9.078;2023-05-29T05:33:28;10.90;99.90
2300;DHT22;1158;48.750;9.078;2023-05-29T05:35:54;11.20;99.90
2300;DHT22;1158;48.750;9.078;2023-05-29T05:38:21;11.40;99.90
2300;DHT22;1158;48.750;9.078;2023-05-29T05:40:48;11.70;99.90
2300;DHT22;1158;48.750;9.078;2023-05-29T05:43:16;12.00;99.90
2300;DHT22;1158;48.750;9.078;2023-05-29T05:45:43;12.30;99.90
2300;DHT22;1158;48.750;9.078;2023-05-29T05:48:09;12.60;99.90
2300;DHT22;1158;48.750;9.078;2023-05-29T05:50:36;12.90;99.90
2300;DHT22;1158;48.750;9.078;2023-05-29T05:53:03;13.30;99.90
2300;DHT22;1158;48.750;9.078;2023-05-29T05:55:29;13.70;99.90
2300;DHT22;1158;48.750;9.078;2023-05-29T05:57:56;14.20;99.90
2300;DHT22;1158;48.750;9.078;2023-05-29T06:00:24;15.40;99.90
2300;DHT22;1158;48.750;9.078;2023-05-29T06:02:51;17.10;99.90
2300;DHT22;1158;48.750;9.078;2023-05-29T06:05:18;18.60;99.90
2300;DHT22;1158;48.750;9.078;2023-05-29T06:07:44;19.50;99.90
2300;DHT22;1158;48.750;9.078;2023-05-29T06:10:11;20.80;99.90
2300;DHT22;1158;48.750;9.078;2023-05-29T06:12:38;21.60;98.90
2300;DHT22;1158;48.750;9.078;2023-05-29T06:15:07;22.20;96.90
2300;DHT22;1158;48.750;9.078;2023-05-29T06:17:35;22.20;94.70
2300;DHT22;1158;48.750;9.078;2023-05-29T06:20:02;22.30;93.70
2300;DHT22;1158;48.750;9.078;2023-05-29T06:22:31;22.50;93.30
2300;DHT22;1158;48.750;9.078;2023-05-29T06:24:58;23.10;92.70
2300;DHT22;1158;48.750;9.078;2023-05-29T06:27:24;23.90;91.00
2300;DHT22;1158;48.750;9.078;2023-05-29T06:29:51;24.00;90.90
2300;DHT22;1158;48.750;9.078;2023-05-29T06:32:18;23.60;89.30
2300;DHT22;1158;48.750;9.078;2023-05-29T06:34:47;24.00;89.50
2300;DHT22;1158;48.750;9.078;2023-05-29T06:37:13;25.00;87.90
2300;DHT22;1158;48.750;9.078;2023-05-29T06:39:42;23.30;88.30
2300;DHT22;1158;48.750;9.078;2023-05-29T06:42:10;24.50;88.20
2300;DHT22;1158;48.750;9.078;2023-05-29T06:44:37;25.30;85.30
2300;DHT22;1158;48.750;9.078;2023-05-29T06:47:05;25.90;84.10
2300;DHT22;1158;48.750;9.078;2023-05-29T06:49:32;26.30;81.80
2300;DHT22;1158;48.750;9.078;2023-05-29T06:52:00;26.00;83.00
2300;DHT22;1158;48.750;9.078;2023-05-29T06:54:26;25.60;82.80
2300;DHT22;1158;48.750;9.078;2023-05-29T06:56:53;24.30;86.50
2300;DHT22;1158;48.750;9.078;2023-05-29T06:59:20;23.60;84.80
2300;DHT22;1158;48.750;9.078;2023-05-29T07:01:47;23.50;86.50
2300;DHT22;1158;48.750;9.078;2023-05-29T07:04:13;24.20;87.40
2300;DHT22;1158;48.750;9.078;2023-05-29T07:06:40;25.40;82.30
2300;DHT22;1158;48.750;9.078;2023-05-29T07:09:08;25.00;81.70
2300;DHT22;1158;48.750;9.078;2023-05-29T07:11:35;25.10;83.30
2300;DHT22;1158;48.750;9.078;2023-05-29T07:14:02;25.70;82.20
2300;DHT22;1158;48.750;9.078;2023-05-29T07:16:28;25.90;81.30
2300;DHT22;1158;48.750;9.078;2023-05-29T07:18:55;24.40;82.60
2300;DHT22;1158;48.750;9.078;2023-05-29T07:21:21;25.00;83.10
2300;DHT22;1158;48.750;9.078;2023-05-29T07:23:51;26.10;81.60
2300;DHT22;1158;48.750;9.078;2023-05-29T07:26:19;26.10;78.20
2300;DHT22;1158;48.750;9.078;2023-05-29T07:28:46;25.40;80.20
2300;DHT22;1158;48.750;9.078;2023-05-29T07:31:13;25.50;80.30
2300;DHT22;1158;48.750;9.078;2023-05-29T07:33:40;26.20;78.90
2300;DHT22;1158;48.750;9.078;2023-05-29T07:36:07;26.40;78.50
2300;DHT22;1158;48.750;9.078;2023-05-29T07:38:34;27.20;76.30
2300;DHT22;1158;48.750;9.078;2023-05-29T07:41:00;27.10;76.80
2300;DHT22;1158;48.750;9.078;2023-05-29T07:43:28;27.20;75.90
2300;DHT22;1158;48.750;9.078;2023-05-29T07:45:55;27.20;76.30
2300;DHT22;1158;48.750;9.078;2023-05-29T07:48:22;27.80;75.80
2300;DHT22;1158;48.750;9.078;2023-05-29T07:50:49;28.50;74.60
2300;DHT22;1158;48.750;9.078;2023-05-29T07:53:17;28.30;74.00
2300;DHT22;1158;48.750;9.078;2023-05-29T07:55:44;26.40;75.30
2300;DHT22;1158;48.750;9.078;2023-05-29T07:58:10;26.70;76.20
2300;DHT22;1158;48.750;9.078;2023-05-29T08:00:39;26.80;76.30
2300;DHT22;1158;48.750;9.078;2023-05-29T08:03:05;27.40;74.90
2300;DHT22;1158;48.750;9.078;2023-05-29T08:05:32;28.00;74.40
2300;DHT22;1158;48.750;9.078;2023-05-29T08:07:59;28.60;73.00
2300;DHT22;1158;48.750;9.078;2023-05-29T08:10:25;28.50;70.60
2300;DHT22;1158;48.750;9.078;2023-05-29T08:12:52;28.60;71.20
2300;DHT22;1158;48.750;9.078;2023-05-29T08:15:19;28.20;72.60
2300;DHT22;1158;48.750;9.078;2023-05-29T08:17:47;28.30;72.90
2300;DHT22;1158;48.750;9.078;2023-05-29T08:20:14;28.70;71.80
2300;DHT22;1158;48.750;9.078;2023-05-29T08:22:40;28.10;73.30
2300;DHT22;1158;48.750;9.078;2023-05-29T08:25:07;27.20;74.20
2300;DHT22;1158;48.750;9.078;2023-05-29T08:27:35;26.50;74.90
2300;DHT22;1158;48.750;9.078;2023-05-29T08:30:02;26.10;75.50
2300;DHT22;1158;48.750;9.078;2023-05-29T08:32:29;26.10;76.60
2300;DHT22;1158;48.750;9.078;2023-05-29T08:34:56;25.90;75.60
2300;DHT22;1158;48.750;9.078;2023-05-29T08:37:23;26.10;78.20
2300;DHT22;1158;48.750;9.078;2023-05-29T08:39:50;26.80;76.40
2300;DHT22;1158;48.750;9.078;2023-05-29T08:42:21;27.50;75.60
2300;DHT22;1158;48.750;9.078;2023-05-29T08:44:51;27.80;73.40
2300;DHT22;1158;48.750;9.078;2023-05-29T08:47:26;27.20;75.00
2300;DHT22;1158;48.750;9.078;2023-05-29T08:49:54;27.90;74.60
2300;DHT22;1158;48.750;9.078;2023-05-29T08:52:23;28.00;72.70
2300;DHT22;1158;48.750;9.078;2023-05-29T08:54:55;27.20;73.60
2300;DHT22;1158;48.750;9.078;2023-05-29T08:57:28;27.70;72.40
2300;DHT22;1158;48.750;9.078;2023-05-29T08:59:56;26.80;74.80
2300;DHT22;1158;48.750;9.078;2023-05-29T09:02:23;27.50;72.20
2300;DHT22;1158;48.750;9.078;2023-05-29T09:04:50;27.10;72.50
2300;DHT22;1158;48.750;9.078;2023-05-29T09:07:19;27.10;73.90
2300;DHT22;1158;48.750;9.078;2023-05-29T09:09:47;27.90;73.50
2300;DHT22;1158;48.750;9.078;2023-05-29T09:12:14;28.40;71.10
2300;DHT22;1158;48.750;9.078;2023-05-29T09:14:43;28.10;71.90
2300;DHT22;1158;48.750;9.078;2023-05-29T09:17:10;28.00;72.20
2300;DHT22;1158;48.750;9.078;2023-05-29T09:19:38;27.90;72.40
2300;DHT22;1158;48.750;9.078;2023-05-29T09:22:07;27.90;71.40
2300;DHT22;1158;48.750;9.078;2023-05-29T09:24:36;28.30;71.00
2300;DHT22;1158;48.750;9.078;2023-05-29T09:27:06;27.60;72.40
2300;DHT22;1158;48.750;9.078;2023-05-29T09:29:37;28.20;70.50
2300;DHT22;1158;48.750;9.078;2023-05-29T09:32:06;27.90;72.00
2300;DHT22;1158;48.750;9.078;2023-05-29T09:34:34;27.90;72.70
2300;DHT22;1158;48.750;9.078;2023-05-29T09:37:01;27.40;72.70
2300;DHT22;1158;48.750;9.078;2023-05-29T09:39:33;27.40;72.10
2300;DHT22;1158;48.750;9.078;2023-05-29T09:42:00;27.50;71.20
2300;DHT22;1158;48.750;9.078;2023-05-29T09:44:30;26.60;74.10
2300;DHT22;1158;48.750;9.078;2023-05-29T09:46:58;27.90;73.50
2300;DHT22;1158;48.750;9.078;2023-05-29T09:49:26;29.00;71.20
2300;DHT22;1158;48.750;9.078;2023-05-29T09:51:53;28.70;70.50
2300;DHT22;1158;48.750;9.078;2023-05-29T09:54:20;29.20;71.40
2300;DHT22;1158;48.750;9.078;2023-05-29T09:56:50;28.90;70.40
2300;DHT22;1158;48.750;9.078;2023-05-29T09:59:17;28.50;71.20
2300;DHT22;1158;48.750;9.078;2023-05-29T10:01:45;28.60;73.20
2300;DHT22;1158;48.750;9.078;2023-05-29T10:04:12;29.20;69.30
2300;DHT22;1158;48.750;9.078;2023-05-29T10:06:43;28.90;70.00
2300;DHT22;1158;48.750;9.078;2023-05-29T10:09:12;29.40;69.40
2300;DHT22;1158;48.750;9.078;2023-05-29T10:11:43;29.00;67.90
2300;DHT22;1158;48.750;9.078;2023-05-29T10:14:14;29.30;69.20
2300;DHT22;1158;48.750;9.078;2023-05-29T10:16:49;29.00;69.70
2300;DHT22;1158;48.750;9.078;2023-05-29T10:19:21;28.60;72.10
2300;DHT22;1158;48.750;9.078;2023-05-29T10:21:53;29.40;70.30
2300;DHT22;1158;48.750;9.078;2023-05-29T10:24:21;29.30;67.30
2300;DHT22;1158;48.750;9.078;2023-05-29T10:26:49;29.20;69.10
2300;DHT22;1158;48.750;9.078;2023-05-29T10:29:21;29.80;69.00
2300;DHT22;1158;48.750;9.078;2023-05-29T10:32:05;29.50;66.00
2300;DHT22;1158;48.750;9.078;2023-05-29T10:34:39;29.50;69.20
2300;DHT22;1158;48.750;9.078;2023-05-29T10:37:18;29.50;68.50
2300;DHT22;1158;48.750;9.078;2023-05-29T10:39:47;29.60;70.20
2300;DHT22;1158;48.750;9.078;2023-05-29T10:42:46;29.70;68.80
2300;DHT22;1158;48.750;9.078;2023-05-29T10:48:39;29.00;68.10
2300;DHT22;1158;48.750;9.078;2023-05-29T10:51:08;28.40;68.60
2300;DHT22;1158;48.750;9.078;2023-05-29T10:53:35;28.10;69.10
2300;DHT22;1158;48.750;9.078;2023-05-29T10:56:08;27.60;66.80
2300;DHT22;1158;48.750;9.078;2023-05-29T10:58:41;28.40;69.30
2300;DHT22;1158;48.750;9.078;2023-05-29T11:01:08;29.20;69.00
2300;DHT22;1158;48.750;9.078;2023-05-29T11:03:35;29.70;66.60
2300;DHT22;1158;48.750;9.078;2023-05-29T11:06:04;30.30;63.70
2300;DHT22;1158;48.750;9.078;2023-05-29T11:08:33;30.10;64.60
2300;DHT22;1158;48.750;9.078;2023-05-29T11:11:02;30.10;63.10
2300;DHT22;1158;48.750;9.078;2023-05-29T11:13:33;30.40;64.70
2300;DHT22;1158;48.750;9.078;2023-05-29T11:16:12;30.50;62.80
2300;DHT22;1158;48.750;9.078;2023-05-29T11:18:43;30.60;62.80
2300;DHT22;1158;48.750;9.078;2023-05-29T11:21:31;30.10;64.00
2300;DHT22;1158;48.750;9.078;2023-05-29T11:24:00;30.50;62.10
2300;DHT22;1158;48.750;9.078;2023-05-29T11:26:29;30.70;62.90
2300;DHT22;1158;48.750;9.078;2023-05-29T11:29:00;31.20;61.40
2300;DHT22;1158;48.750;9.078;2023-05-29T11:31:28;30.60;63.30
2300;DHT22;1158;48.750;9.078;2023-05-29T11:33:59;30.50;62.00
2300;DHT22;1158;48.750;9.078;2023-05-29T11:36:32;30.70;60.60
2300;DHT22;1158;48.750;9.078;2023-05-29T11:38:59;30.70;60.60
2300;DHT22;1158;48.750;9.078;2023-05-29T11:41:26;30.40;60.20
2300;DHT22;1158;48.750;9.078;2023-05-29T11:43:57;30.40;61.80
2300;DHT22;1158;48.750;9.078;2023-05-29T11:46:24;31.30;59.40
2300;DHT22;1158;48.750;9.078;2023-05-29T11:48:52;30.90;60.50
2300;DHT22;1158;48.750;9.078;2023-05-29T11:51:18;29.90;63.10
2300;DHT22;1158;48.750;9.078;2023-05-29T11:53:48;29.60;61.10
2300;DHT22;1158;48.750;9.078;2023-05-29T11:56:18;30.20;60.10
2300;DHT22;1158;48.750;9.078;2023-05-29T11:58:53;30.90;60.30
2300;DHT22;1158;48.750;9.078;2023-05-29T12:01:22;31.70;58.20
2300;DHT22;1158;48.750;9.078;2023-05-29T12:03:50;31.90;57.30
2300;DHT22;1158;48.750;9.078;2023-05-29T12:06:30;30.90;57.20
2300;DHT22;1158;48.750;9.078;2023-05-29T12:08:58;30.10;59.40
2300;DHT22;1158;48.750;9.078;2023-05-29T12:11:30;30.30;58.60
2300;DHT22;1158;48.750;9.078;2023-05-29T12:14:01;30.60;57.20
2300;DHT22;1158;48.750;9.078;2023-05-29T12:16:29;31.70;58.30
2300;DHT22;1158;48.750;9.078;2023-05-29T12:18:56;32.20;58.00
2300;DHT22;1158;48.750;9.078;2023-05-29T12:21:23;32.20;55.70
2300;DHT22;1158;48.750;9.078;2023-05-29T12:23:52;31.90;55.10
2300;DHT22;1158;48.750;9.078;2023-05-29T12:26:23;31.00;53.90
2300;DHT22;1158;48.750;9.078;2023-05-29T12:28:51;29.80;57.40
2300;DHT22;1158;48.750;9.078;2023-05-29T12:31:26;30.20;57.50
2300;DHT22;1158;48.750;9.078;2023-05-29T12:33:57;30.80;56.80
2300;DHT22;1158;48.750;9.078;2023-05-29T12:36:25;30.90;55.80
2300;DHT22;1158;48.750;9.078;2023-05-29T12:38:52;30.90;55.60
2300;DHT22;1158;48.750;9.078;2023-05-29T12:41:25;31.30;56.60
2300;DHT22;1158;48.750;9.078;2023-05-29T12:43:53;31.90;55.20
2300;DHT22;1158;48.750;9.078;2023-05-29T12:46:20;30.50;56.20
2300;DHT22;1158;48.750;9.078;2023-05-29T12:48:47;31.30;54.70
2300;DHT22;1158;48.750;9.078;2023-05-29T12:51:15;31.40;56.10
2300;DHT22;1158;48.750;9.078;2023-05-29T12:53:44;32.30;56.50
2300;DHT22;1158;48.750;9.078;2023-05-29T12:56:10;32.80;53.60
2300;DHT22;1158;48.750;9.078;2023-05-29T12:58:38;32.30;52.80
2300;DHT22;1158;48.750;9.078;2023-05-29T13:01:05;32.30;52.60
2300;DHT22;1158;48.750;9.078;2023-05-29T13:03:38;32.40;54.10
2300;DHT22;1158;48.750;9.078;2023-05-29T13:06:06;32.00;52.50
2300;DHT22;1158;48.750;9.078;2023-05-29T13:08:33;31.70;52.60
2300;DHT22;1158;48.750;9.078;2023-05-29T13:10:59;31.90;53.00
2300;DHT22;1158;48.750;9.078;2023-05-29T13:13:26;31.70;52.30
2300;DHT22;1158;48.750;9.078;2023-05-29T13:15:54;31.50;55.20
2300;DHT22;1158;48.750;9.078;2023-05-29T13:18:21;32.30;52.50
2300;DHT22;1158;48.750;9.078;2023-05-29T13:20:47;31.00;52.00
2300;DHT22;1158;48.750;9.078;2023-05-29T13:23:14;30.60;50.70
2300;DHT22;1158;48.750;9.078;2023-05-29T13:25:41;30.40;51.50
2300;DHT22;1158;48.750;9.078;2023-05-29T13:28:08;31.00;51.40
2300;DHT22;1158;48.750;9.078;2023-05-29T13:30:34;31.40;51.40
2300;DHT22;1158;48.750;9.078;2023-05-29T13:33:02;31.90;50.50
2300;DHT22;1158;48.750;9.078;2023-05-29T13:35:29;32.10;50.80
2300;DHT22;1158;48.750;9.078;2023-05-29T13:37:56;31.80;50.70
2300;DHT22;1158;48.750;9.078;2023-05-29T13:40:22;32.20;51.40
2300;DHT22;1158;48.750;9.078;2023-05-29T13:42:49;32.50;50.10
2300;DHT22;1158;48.750;9.078;2023-05-29T13:45:16;32.50;49.80
2300;DHT22;1158;48.750;9.078;2023-05-29T13:47:43;32.20;50.10
2300;DHT22;1158;48.750;9.078;2023-05-29T13:50:11;31.70;51.10
2300;DHT22;1158;48.750;9.078;2023-05-29T13:52:38;31.50;53.50
2300;DHT22;1158;48.750;9.078;2023-05-29T13:55:05;30.70;51.60
2300;DHT22;1158;48.750;9.078;2023-05-29T13:57:34;31.00;52.40
2300;DHT22;1158;48.750;9.078;2023-05-29T14:00:02;30.90;51.80
2300;DHT22;1158;48.750;9.078;2023-05-29T14:02:29;31.40;50.30
2300;DHT22;1158;48.750;9.078;2023-05-29T14:04:55;31.70;51.60
2300;DHT22;1158;48.750;9.078;2023-05-29T14:07:23;32.30;51.40
2300;DHT22;1158;48.750;9.078;2023-05-29T14:09:50;32.80;51.30
2300;DHT22;1158;48.750;9.078;2023-05-29T14:12:17;32.10;49.10
2300;DHT22;1158;48.750;9.078;2023-05-29T14:14:44;32.30;51.00
2300;DHT22;1158;48.750;9.078;2023-05-29T14:17:10;32.20;51.30
2300;DHT22;1158;48.750;9.078;2023-05-29T14:19:37;32.60;51.40
2300;DHT22;1158;48.750;9.078;2023-05-29T14:22:04;33.10;49.00
2300;DHT22;1158;48.750;9.078;2023-05-29T14:24:32;32.50;51.10
2300;DHT22;1158;48.750;9.078;2023-05-29T14:27:01;32.70;50.70
2300;DHT22;1158;48.750;9.078;2023-05-29T14:29:28;32.70;49.90
2300;DHT22;1158;48.750;9.078;2023-05-29T14:31:55;32.30;48.90
2300;DHT22;1158;48.750;9.078;2023-05-29T14:34:21;32.70;48.80
2300;DHT22;1158;48.750;9.078;2023-05-29T14:36:48;32.70;49.60
2300;DHT22;1158;48.750;9.078;2023-05-29T14:39:15;33.50;49.30
2300;DHT22;1158;48.750;9.078;2023-05-29T14:41:43;33.00;49.80
2300;DHT22;1158;48.750;9.078;2023-05-29T14:44:09;32.30;50.20
2300;DHT22;1158;48.750;9.078;2023-05-29T14:46:37;32.80;50.90
2300;DHT22;1158;48.750;9.078;2023-05-29T14:49:04;33.20;50.90
2300;DHT22;1158;48.750;9.078;2023-05-29T14:51:31;33.30;50.20
2300;DHT22;1158;48.750;9.078;2023-05-29T14:53:58;32.90;50.80
2300;DHT22;1158;48.750;9.078;2023-05-29T14:56:25;32.20;49.10
2300;DHT22;1158;48.750;9.078;2023-05-29T14:58:53;31.70;50.20
2300;DHT22;1158;48.750;9.078;2023-05-29T15:01:20;31.90;52.60
2300;DHT22;1158;48.750;9.078;2023-05-29T15:03:47;32.10;51.10
2300;DHT22;1158;48.750;9.078;2023-05-29T15:06:14;32.30;51.20
2300;DHT22;1158;48.750;9.078;2023-05-29T15:08:41;32.30;50.20
2300;DHT22;1158;48.750;9.078;2023-05-29T15:11:08;31.70;51.20
2300;DHT22;1158;48.750;9.078;2023-05-29T15:13:37;31.30;51.70
2300;DHT22;1158;48.750;9.078;2023-05-29T15:16:05;31.50;51.90
2300;DHT22;1158;48.750;9.078;2023-05-29T15:18:33;32.50;52.10
2300;DHT22;1158;48.750;9.078;2023-05-29T15:21:00;32.10;51.70
2300;DHT22;1158;48.750;9.078;2023-05-29T15:23:26;31.90;51.30
2300;DHT22;1158;48.750;9.078;2023-05-29T15:25:53;32.10;52.80
2300;DHT22;1158;48.750;9.078;2023-05-29T15:28:20;31.70;52.90
2300;DHT22;1158;48.750;9.078;2023-05-29T15:30:47;31.80;52.20
2300;DHT22;1158;48.750;9.078;2023-05-29T15:33:15;30.80;53.30
2300;DHT22;1158;48.750;9.078;2023-05-29T15:35:42;31.10;52.50
2300;DHT22;1158;48.750;9.078;2023-05-29T15:38:09;30.90;52.60
2300;DHT22;1158;48.750;9.078;2023-05-29T15:40:35;30.50;52.70
2300;DHT22;1158;48.750;9.078;2023-05-29T15:43:02;30.70;52.90
2300;DHT22;1158;48.750;9.078;2023-05-29T15:45:29;30.70;53.30
2300;DHT22;1158;48.750;9.078;2023-05-29T15:47:55;30.30;54.50
2300;DHT22;1158;48.750;9.078;2023-05-29T15:50:23;30.20;54.20
2300;DHT22;1158;48.750;9.078;2023-05-29T15:52:50;30.40;54.00
2300;DHT22;1158;48.750;9.078;2023-05-29T15:55:17;30.50;54.10
2300;DHT22;1158;48.750;9.078;2023-05-29T15:57:44;30.70;55.00
2300;DHT22;1158;48.750;9.078;2023-05-29T16:00:13;30.80;54.10
2300;DHT22;1158;48.750;9.078;2023-05-29T16:02:40;30.50;54.90
2300;DHT22;1158;48.750;9.078;2023-05-29T16:05:07;30.30;55.10
2300;DHT22;1158;48.750;9.078;2023-05-29T16:07:35;30.20;54.60
2300;DHT22;1158;48.750;9.078;2023-05-29T16:10:03;30.50;55.40
2300;DHT22;1158;48.750;9.078;2023-05-29T16:12:30;30.30;55.10
2300;DHT22;1158;48.750;9.078;2023-05-29T16:14:57;29.70;56.10